»·PEaware :: QA152 YSBK-YBCG

QA152 :: YSBK-YBCG

FLIGHT INFORMATION

Flight Status: Arrived
Operator: Unknown
More flights by this operator :: More flights under this callsign
Pilot: Joshua B. (16097)
Aircraft: BOEING 737-800
(B738)
More flights by this aircraft type
Origin: YSBK Bankstown
Australia
Destination: YBCG Coolangatta
Australia
More flights between these airports :: More routes between these airports
Route: KAMBA GUNTA NICLA KMP CFS BNA CG
File this flight plan on PilotEdge
Remarks: PBN / A1B1C1D1S1S2 DOF / 170725 REG / N806SB EET / YBBB0000 OPR / QA RMK / TCAS SIMBRIEF
Altitude:
(Current/Filed)
37,000ft
Speed:
(Current/Filed)
445kts
Departed: 25-Jul-17 02:42 AM
Arrived: 25-Jul-17 03:50 AM
Distance/Time
Traveled:
369nm/1:08
Distance/Time
To Go:
Arrived

Flight Plot

Page will automatically refresh every two minutes.

Flight plan parsing failed; only flown route is shown


Map Options




Map Legend


Flown Route
Filed Route
Departure Airport
Arrival Airport
Navaid (VOR, NDB)
Fix

Horizontal Profiles

Position Reports

Time Latitude Longitude Heading Altitude Ground
Speed
25-Jul-17 02:30 -33.919022 150.989016 66 36ft 0kts
25-Jul-17 02:31 -33.919022 150.989016 66 36ft 0kts
25-Jul-17 02:32 -33.919022 150.989016 66 36ft 0kts
25-Jul-17 02:33 -33.919022 150.989016 66 36ft 0kts
25-Jul-17 02:34 -33.919022 150.989016 66 36ft 0kts
25-Jul-17 02:35 -33.919022 150.989016 66 36ft 0kts
25-Jul-17 02:36 -33.919022 150.989016 66 36ft 0kts
25-Jul-17 02:37 -33.919022 150.989016 66 36ft 0kts
25-Jul-17 02:38 -33.919022 150.989016 66 36ft 0kts
25-Jul-17 02:39 -33.919022 150.989016 66 36ft 0kts
25-Jul-17 02:40 -33.919020 150.989020 66 36ft 0kts
25-Jul-17 02:41 -33.920414 150.990338 161 34ft 10kts
25-Jul-17 02:42 -33.920897 150.988925 224 29ft 9kts
25-Jul-17 02:43 -33.923351 150.992389 124 32ft 16kts
25-Jul-17 02:44 -33.925443 150.996100 133 38ft 10kts
25-Jul-17 02:45 -33.923498 150.990568 304 26ft 103kts
25-Jul-17 02:46 -33.888458 150.977033 39 1721ft 199kts
25-Jul-17 02:47 -33.858295 151.040110 50 4257ft 236kts
25-Jul-17 02:48 -33.806490 151.107602 39 6986ft 313kts
25-Jul-17 02:49 -33.736314 151.183239 37 9865ft 361kts
25-Jul-17 02:50 -33.657615 151.264851 37 12678ft 390kts
25-Jul-17 02:51 -33.573851 151.351558 35 15490ft 413kts
25-Jul-17 02:52 -33.480100 151.429886 5 18294ft 403kts
25-Jul-17 02:53 -33.371039 151.449310 355 21162ft 398kts
25-Jul-17 02:54 -33.262110 151.464340 352 23993ft 394kts
25-Jul-17 02:55 -33.172558 151.487521 5 26341ft 407kts
25-Jul-17 02:56 -33.070612 151.534687 3 29088ft 383kts
25-Jul-17 02:57 -32.976045 151.578668 1 31131ft 363kts
25-Jul-17 02:58 -32.877682 151.623626 3 31199ft 406kts
25-Jul-17 02:59 -32.768182 151.674468 5 31170ft 449kts
25-Jul-17 03:00 -32.647487 151.730448 6 31164ft 487kts
25-Jul-17 03:01 -32.522980 151.788187 6 31149ft 486kts
25-Jul-17 03:02 -32.397625 151.845903 6 31150ft 486kts
25-Jul-17 03:03 -32.272351 151.903400 6 31151ft 486kts
25-Jul-17 03:04 -32.147309 151.960617 6 31123ft 487kts
25-Jul-17 03:05 -32.019230 152.030484 21 31052ft 544kts
25-Jul-17 03:06 -31.895172 152.129341 22 31004ft 544kts
25-Jul-17 03:07 -31.771638 152.227808 22 31005ft 545kts
25-Jul-17 03:08 -31.646910 152.326890 22 31008ft 545kts
25-Jul-17 03:09 -31.522613 152.425294 22 31012ft 545kts
25-Jul-17 03:10 -31.398904 152.522929 22 31014ft 544kts
25-Jul-17 03:11 -31.273457 152.621595 22 31018ft 545kts
25-Jul-17 03:12 -31.149057 152.719153 22 30993ft 543kts
25-Jul-17 03:13 -31.021358 152.807236 8 31015ft 518kts
25-Jul-17 03:14 -30.889663 152.866097 10 30997ft 512kts
25-Jul-17 03:15 -30.758291 152.925469 10 30997ft 512kts
25-Jul-17 03:16 -30.626010 152.984921 10 30999ft 513kts
25-Jul-17 03:17 -30.493921 153.044073 10 31000ft 513kts
25-Jul-17 03:18 -30.360829 153.103500 10 31002ft 514kts
25-Jul-17 03:19 -30.227854 153.151222 1 31016ft 503kts
25-Jul-17 03:20 -30.092478 153.190162 3 31006ft 503kts
25-Jul-17 03:21 -29.958267 153.230192 3 30393ft 504kts
25-Jul-17 03:22 -29.829764 153.268673 3 28556ft 465kts
25-Jul-17 03:23 -29.710523 153.304185 4 26728ft 433kts
25-Jul-17 03:24 -29.598179 153.337536 4 24916ft 409kts
25-Jul-17 03:25 -29.496565 153.367810 4 23300ft 358kts
25-Jul-17 03:26 -29.406431 153.394456 4 21499ft 319kts
25-Jul-17 03:27 -29.324515 153.418562 5 19671ft 296kts
25-Jul-17 03:28 -29.244132 153.441981 7 17740ft 311kts
25-Jul-17 03:29 -29.163355 153.466029 7 16886ft 290kts
25-Jul-17 03:30 -29.084769 153.489101 8 16351ft 291kts
25-Jul-17 03:31 -29.008615 153.511498 8 15742ft 272kts
25-Jul-17 03:32 -28.939099 153.531925 8 15047ft 245kts
25-Jul-17 03:33 -28.872844 153.551151 10 13768ft 260kts
25-Jul-17 03:34 -28.800922 153.558720 352 12102ft 266kts
25-Jul-17 03:35 -28.733423 153.553394 352 10574ft 235kts
25-Jul-17 03:36 -28.676583 153.548654 351 9668ft 186kts
25-Jul-17 03:37 -28.615917 153.543083 353 8160ft 223kts
25-Jul-17 03:38 -28.555536 153.537828 353 6357ft 218kts
25-Jul-17 03:39 -28.495201 153.532507 354 4571ft 216kts
25-Jul-17 03:40 -28.435210 153.527226 354 4006ft 226kts
25-Jul-17 03:41 -28.372553 153.521776 354 4000ft 225kts
25-Jul-17 03:42 -28.310542 153.516356 354 4000ft 225kts
25-Jul-17 03:43 -28.248322 153.510914 354 4001ft 225kts
25-Jul-17 03:44 -28.191308 153.505957 354 4010ft 197kts
25-Jul-17 03:45 -28.136176 153.503538 358 3370ft 191kts
25-Jul-17 03:46 -28.083900 153.502903 358 3006ft 190kts
25-Jul-17 03:47 -28.031305 153.500978 340 2395ft 186kts
25-Jul-17 03:48 -28.014857 153.467018 246 1934ft 149kts
25-Jul-17 03:49 -28.047766 153.445410 171 1132ft 145kts
25-Jul-17 03:50 -28.086490 153.461718 165 1623ft 152kts
25-Jul-17 03:51 -28.124977 153.480746 152 823ft 149kts
25-Jul-17 03:52 -28.160821 153.503441 151 28ft 139kts
25-Jul-17 03:53 -28.168488 153.508305 150 21ft 19kts
25-Jul-17 03:54 -28.169648 153.511217 148 21ft 12kts
25-Jul-17 03:55 -28.170496 153.511566 334 21ft 4kts
25-Jul-17 03:56 -28.167814 153.511486 336 21ft 10kts
25-Jul-17 03:57 -28.165425 153.509994 332 23ft 0kts
25-Jul-17 03:58 -28.164072 153.510797 114 24ft 9kts
25-Jul-17 03:59 -28.164407 153.511950 112 25ft 0kts
25-Jul-17 04:00 -28.164407 153.511950 112 25ft 0kts
25-Jul-17 04:01 -28.164407 153.511950 112 25ft 0kts
25-Jul-17 04:02 -28.164407 153.511950 112 25ft 0kts

Navigation Log

Ident Type
Flight plan parsing failed, navigation log unavailable